Time;durP1;ratioP1;P1;durP2;ratioP2;P2;SDS_P1;SDS_P2;PMS_P1;PMS_P2;Temp;Humidity;BMP_temperature;BMP_pressure;BME280_temperature;BME280_humidity;BME280_pressure;Samples;Min_cycle;Max_cycle;Signal;HPM_P1;HPM_P2
2022/06/17 00:01:19;;;;;;;;;;;;;;;;;;4885702;29;19978;-86
2022/06/17 00:03:45;;;;;;;;;;;;;;;;;;4871642;29;20010;-85
2022/06/17 00:06:11;;;;;;;;;;;;;;;;;;4888477;29;19974;-86
2022/06/17 00:08:37;;;;;;;;;;;;;;;;;;4869292;29;19927;-86
2022/06/17 00:11:03;;;;;;;;;;;;;;;;;;4896416;29;19938;-86
2022/06/17 00:13:29;;;;;;;;;;;;;;;;;;4887749;29;19998;-86
2022/06/17 00:15:55;;;;;;;;;;;;;;;;;;4888049;29;19927;-85
2022/06/17 00:18:23;;;;;;;;;;;;;;;;;;4889215;29;19919;-86
2022/06/17 00:20:49;;;;;;;;;;;;;;;;;;4883079;29;19978;-86
2022/06/17 00:23:15;;;;;;;;;;;;;;;;;;4875440;29;19923;-86
2022/06/17 00:25:41;;;;;;;;;;;;;;;;;;4883234;29;19927;-86
2022/06/17 00:28:06;;;;;;;;;;;;;;;;;;4887343;29;19959;-86
2022/06/17 00:30:32;;;;;;;;;;;;;;;;;;4883386;29;19927;-86
2022/06/17 00:32:58;;;;;;;;;;;;;;;;;;4887017;29;19935;-86
2022/06/17 00:35:24;;;;;;;;;;;;;;;;;;4887719;29;20009;-86
2022/06/17 00:37:50;;;;;;;;;;;;;;;;;;4868720;29;19931;-86
2022/06/17 00:40:16;;;;;;;;;;;;;;;;;;4891916;29;19973;-86
2022/06/17 00:42:42;;;;;;;;;;;;;;;;;;4870906;29;19934;-86
2022/06/17 00:45:08;;;;;;;;;;;;;;;;;;4887722;29;19927;-86
2022/06/17 00:47:34;;;;;;;;;;;;;;;;;;4880989;29;19958;-86
2022/06/17 00:50:00;;;;;;;;;;;;;;;;;;4890211;29;19975;-86
2022/06/17 00:52:26;;;;;;;;;;;;;;;;;;4890348;29;19956;-86
2022/06/17 00:54:52;;;;;;;;;;;;;;;;;;4887434;29;19935;-86
2022/06/17 00:57:20;;;;;;;;;;;;;;;;;;4887319;29;20405;-86
2022/06/17 00:59:46;;;;;;;;;;;;;;;;;;4881343;29;19947;-86
2022/06/17 01:02:12;;;;;;;;;;;;;;;;;;4871418;29;19974;-86
2022/06/17 01:04:38;;;;;;;;;;;;;;;;;;4866217;29;19931;-86
2022/06/17 01:07:04;;;;;;;;;;;;;;;;;;4886732;29;19969;-86
2022/06/17 01:12:14;;;;;;;;;;;;;;;;;;4894441;29;20298;-86
2022/06/17 01:14:40;;;;;;;;;;;;;;;;;;4886630;29;19935;-85
2022/06/17 01:17:06;;;;;;;;;;;;;;;;;;4886494;29;20009;-85
2022/06/17 01:19:32;;;;;;;;;;;;;;;;;;4883656;29;19938;-85
2022/06/17 01:21:58;;;;;;;;;;;;;;;;;;4887619;29;19979;-86
2022/06/17 01:24:24;;;;;;;;;;;;;;;;;;4886313;29;19934;-86
2022/06/17 01:26:51;;;;;;;;;;;;;;;;;;4882068;29;19938;-86
2022/06/17 01:29:24;;;;;;;;;;;;;;;;;;4886669;29;19934;-86
2022/06/17 01:31:51;;;;;;;;;;;;;;;;;;4884908;29;20665;-86
2022/06/17 01:34:19;;;;;;;;;;;;;;;;;;4883559;29;20398;-86
2022/06/17 01:36:45;;;;;;;;;;;;;;;;;;4867985;29;20370;-85
2022/06/17 01:39:27;;;;;;;;;;;;;;;;;;4874896;29;19963;-85
2022/06/17 01:41:54;;;;;;;;;;;;;;;;;;4858423;29;19985;-86
2022/06/17 01:44:20;;;;;;;;;;;;;;;;;;4876853;29;19964;-86
2022/06/17 01:46:48;;;;;;;;;;;;;;;;;;4860934;29;19927;-87
2022/06/17 01:49:15;;;;;;;;;;;;;;;;;;4851448;29;19935;-86
2022/06/17 01:51:42;;;;;;;;;;;;;;;;;;4863685;29;19923;-86
2022/06/17 01:54:08;;;;;;;;;;;;;;;;;;4854802;29;19974;-86
2022/06/17 01:56:35;;;;;;;;;;;;;;;;;;4869571;29;20109;-86
2022/06/17 01:59:01;;;;;;;;;;;;;;;;;;4855112;29;19932;-86
2022/06/17 02:01:39;;;;;;;;;;;;;;;;;;4837470;29;20299;-85
2022/06/17 02:04:08;;;;;;;;;;;;;;;;;;4865763;29;20055;-86
2022/06/17 02:06:36;;;;;;;;;;;;;;;;;;4845887;29;19923;-86
2022/06/17 02:09:02;;;;;;;;;;;;;;;;;;4837687;29;19927;-85
2022/06/17 02:11:28;;;;;;;;;;;;;;;;;;4893198;29;20053;-85
2022/06/17 02:13:54;;;;;;;;;;;;;;;;;;4892904;29;19935;-86
2022/06/17 02:16:20;;;;;;;;;;;;;;;;;;4885637;29;19931;-86
2022/06/17 02:18:47;;;;;;;;;;;;;;;;;;4880964;29;19934;-86
2022/06/17 02:21:13;;;;;;;;;;;;;;;;;;4885246;29;19950;-86
2022/06/17 02:23:40;;;;;;;;;;;;;;;;;;4883502;29;20611;-86
2022/06/17 02:26:08;;;;;;;;;;;;;;;;;;4884911;29;19934;-86
2022/06/17 02:28:34;;;;;;;;;;;;;;;;;;4880626;29;20384;-86
2022/06/17 02:31:01;;;;;;;;;;;;;;;;;;4884946;29;20014;-85
2022/06/17 02:33:30;;;;;;;;;;;;;;;;;;4884077;29;19931;-86
2022/06/17 02:35:58;;;;;;;;;;;;;;;;;;4884938;29;19934;-85
2022/06/17 02:38:26;;;;;;;;;;;;;;;;;;4868846;29;20363;-85
2022/06/17 02:40:53;;;;;;;;;;;;;;;;;;4883372;29;20322;-86
2022/06/17 02:43:20;;;;;;;;;;;;;;;;;;4889821;29;19986;-86
2022/06/17 02:45:52;;;;;;;;;;;;;;;;;;4865099;29;19931;-86
2022/06/17 02:48:19;;;;;;;;;;;;;;;;;;4869762;29;19998;-86
2022/06/17 02:50:47;;;;;;;;;;;;;;;;;;4878363;29;19998;-86
2022/06/17 02:53:14;;;;;;;;;;;;;;;;;;4884681;29;19973;-86
2022/06/17 02:55:40;;;;;;;;;;;;;;;;;;4885415;29;20246;-86
2022/06/17 02:58:16;;;;;;;;;;;;;;;;;;4885730;29;20374;-86
2022/06/17 03:00:44;;;;;;;;;;;;;;;;;;4881482;29;20386;-86
2022/06/17 03:03:11;;;;;;;;;;;;;;;;;;4886157;29;20442;-86
2022/06/17 03:05:38;;;;;;;;;;;;;;;;;;4882453;29;19923;-85
2022/06/17 03:08:08;;;;;;;;;;;;;;;;;;4901614;28;20263;-86
2022/06/17 03:10:34;;;;;;;;;;;;;;;;;;4877369;29;19923;-86
2022/06/17 03:13:05;;;;;;;;;;;;;;;;;;4891729;29;20382;-85
2022/06/17 03:15:41;;;;;;;;;;;;;;;;;;4888035;29;20374;-85
2022/06/17 03:18:07;;;;;;;;;;;;;;;;;;4883423;29;19998;-86
2022/06/17 03:20:43;;;;;;;;;;;;;;;;;;4876749;29;19931;-86
2022/06/17 03:23:10;;;;;;;;;;;;;;;;;;4880559;29;20409;-85
2022/06/17 03:25:37;;;;;;;;;;;;;;;;;;4881259;29;19927;-86
2022/06/17 03:28:04;;;;;;;;;;;;;;;;;;4886502;28;19939;-85
2022/06/17 03:30:31;;;;;;;;;;;;;;;;;;4884065;29;19931;-86
2022/06/17 03:33:12;;;;;;;;;;;;;;;;;;4865942;29;20492;-86
2022/06/17 03:35:40;;;;;;;;;;;;;;;;;;4862537;29;19959;-85
2022/06/17 03:38:09;;;;;;;;;;;;;;;;;;4864228;29;19927;-85
2022/06/17 03:40:37;;;;;;;;;;;;;;;;;;4863190;29;20450;-86
2022/06/17 03:43:22;;;;;;;;;;;;;;;;;;4871859;29;19969;-86
2022/06/17 03:45:47;;;;;;;;;;;;;;;;;;4842108;29;19923;-86
2022/06/17 03:48:28;;;;;;;;;;;;;;;;;;4810785;29;20004;-86
2022/06/17 03:50:56;;;;;;;;;;;;;;;;;;4829059;29;20445;-86
2022/06/17 03:53:23;;;;;;;;;;;;;;;;;;4816698;29;19924;-86
2022/06/17 03:55:58;;;;;;;;;;;;;;;;;;4836513;29;21266;-86
2022/06/17 03:58:31;;;;;;;;;;;;;;;;;;4799822;29;19943;-86
2022/06/17 04:00:59;;;;;;;;;;;;;;;;;;4801404;29;19984;-86
2022/06/17 04:03:26;;;;;;;;;;;;;;;;;;4797847;29;19934;-86
2022/06/17 04:05:53;;;;;;;;;;;;;;;;;;4828984;29;20022;-86
2022/06/17 04:08:20;;;;;;;;;;;;;;;;;;4852293;29;19942;-85
2022/06/17 04:10:47;;;;;;;;;;;;;;;;;;4833231;29;19932;-85
2022/06/17 04:13:15;;;;;;;;;;;;;;;;;;4833842;29;20009;-86
2022/06/17 04:15:42;;;;;;;;;;;;;;;;;;4830712;29;19936;-86
2022/06/17 04:18:08;;;;;;;;;;;;;;;;;;4836178;29;19931;-86
2022/06/17 04:20:36;;;;;;;;;;;;;;;;;;4853141;29;20448;-86
2022/06/17 04:23:02;;;;;;;;;;;;;;;;;;4853387;29;19928;-86
2022/06/17 04:25:28;;;;;;;;;;;;;;;;;;4850203;29;20001;-86
2022/06/17 04:27:57;;;;;;;;;;;;;;;;;;4882510;29;20022;-86
2022/06/17 04:30:23;;;;;;;;;;;;;;;;;;4879500;29;19990;-86
2022/06/17 04:32:49;;;;;;;;;;;;;;;;;;4882771;29;20587;-86
2022/06/17 04:35:16;;;;;;;;;;;;;;;;;;4892107;29;22476;-86
2022/06/17 04:37:43;;;;;;;;;;;;;;;;;;4888729;29;20278;-86
2022/06/17 04:40:11;;;;;;;;;;;;;;;;;;4896603;29;20346;-86
2022/06/17 04:42:38;;;;;;;;;;;;;;;;;;4893722;29;19939;-86
2022/06/17 04:45:08;;;;;;;;;;;;;;;;;;4893917;29;19931;-86
2022/06/17 04:47:35;;;;;;;;;;;;;;;;;;4885798;29;20037;-85
2022/06/17 04:50:02;;;;;;;;;;;;;;;;;;4898676;29;19931;-85
2022/06/17 04:52:28;;;;;;;;;;;;;;;;;;4900344;29;19929;-85
2022/06/17 04:55:01;;;;;;;;;;;;;;;;;;4895817;29;19989;-85
2022/06/17 04:57:27;;;;;;;;;;;;;;;;;;4881410;29;19923;-85
2022/06/17 05:00:05;;;;;;;;;;;;;;;;;;4893831;29;20006;-85
2022/06/17 05:02:35;;;;;;;;;;;;;;;;;;4887616;29;20077;-85
2022/06/17 05:05:02;;;;;;;;;;;;;;;;;;4896410;29;19928;-85
2022/06/17 05:07:28;;;;;;;;;;;;;;;;;;4894968;29;20302;-86
2022/06/17 05:09:55;;;;;;;;;;;;;;;;;;4907974;29;19924;-85
2022/06/17 05:12:21;;;;;;;;;;;;;;;;;;4890220;29;20356;-85
2022/06/17 05:14:48;;;;;;;;;;;;;;;;;;4871807;29;20787;-85
2022/06/17 05:17:16;;;;;;;;;;;;;;;;;;4888285;29;19979;-86
2022/06/17 05:19:42;;;;;;;;;;;;;;;;;;4870250;29;19928;-86
2022/06/17 05:22:09;;;;;;;;;;;;;;;;;;4894071;29;19942;-86
2022/06/17 05:24:51;;;;;;;;;;;;;;;;;;4886941;29;19938;-86
2022/06/17 05:27:17;;;;;;;;;;;;;;;;;;4896613;29;19930;-86
2022/06/17 05:29:44;;;;;;;;;;;;;;;;;;4895709;29;19932;-85
2022/06/17 05:32:12;;;;;;;;;;;;;;;;;;4888484;29;20022;-85
2022/06/17 05:34:38;;;;;;;;;;;;;;;;;;4882473;29;19975;-86
2022/06/17 05:37:14;;;;;;;;;;;;;;;;;;4891951;29;19954;-85
2022/06/17 05:39:41;;;;;;;;;;;;;;;;;;4883896;29;20245;-86
2022/06/17 05:42:08;;;;;;;;;;;;;;;;;;4886327;29;19931;-86
2022/06/17 05:44:35;;;;;;;;;;;;;;;;;;4886196;29;19927;-86
2022/06/17 05:47:02;;;;;;;;;;;;;;;;;;4891946;29;19927;-86
2022/06/17 05:49:30;;;;;;;;;;;;;;;;;;4876590;29;19933;-86
2022/06/17 05:51:58;;;;;;;;;;;;;;;;;;4891265;29;19923;-86
2022/06/17 05:54:24;;;;;;;;;;;;;;;;;;4876571;29;20977;-86
2022/06/17 05:56:50;;;;;;;;;;;;;;;;;;4875372;29;19931;-86
2022/06/17 05:59:17;;;;;;;;;;;;;;;;;;4900906;29;20018;-86
2022/06/17 06:01:44;;;;;;;;;;;;;;;;;;4895107;29;19973;-86
2022/06/17 06:04:11;;;;;;;;;;;;;;;;;;4900612;29;19934;-86
2022/06/17 06:06:38;;;;;;;;;;;;;;;;;;4888569;29;19978;-86
2022/06/17 06:09:09;;;;;;;;;;;;;;;;;;4891385;29;20015;-86
2022/06/17 06:11:35;;;;;;;;;;;;;;;;;;4886239;29;20014;-85
2022/06/17 06:14:02;;;;;;;;;;;;;;;;;;4893496;29;20521;-85
2022/06/17 06:16:29;;;;;;;;;;;;;;;;;;4887846;29;19931;-85
2022/06/17 06:19:01;;;;;;;;;;;;;;;;;;4877100;29;20271;-84
2022/06/17 06:21:27;;;;;;;;;;;;;;;;;;4889531;29;19931;-84
2022/06/17 06:23:59;;;;;;;;;;;;;;;;;;4880422;29;19997;-83
2022/06/17 06:26:26;;;;;;;;;;;;;;;;;;4877746;29;19927;-84
2022/06/17 06:28:54;;;;;;;;;;;;;;;;;;4876002;29;19933;-83
2022/06/17 06:31:21;;;;;;;;;;;;;;;;;;4881503;29;19978;-83
2022/06/17 06:33:48;;;;;;;;;;;;;;;;;;4876766;29;19931;-84
2022/06/17 06:36:14;;;;;;;;;;;;;;;;;;4875588;29;20022;-85
2022/06/17 06:38:56;;;;;;;;;;;;;;;;;;4856062;29;20026;-84
2022/06/17 06:41:23;;;;;;;;;;;;;;;;;;4843749;29;19934;-84
2022/06/17 06:43:50;;;;;;;;;;;;;;;;;;4825120;29;19935;-84
2022/06/17 06:46:16;;;;;;;;;;;;;;;;;;4857979;29;20292;-84
2022/06/17 06:48:46;;;;;;;;;;;;;;;;;;4843513;29;19928;-82
2022/06/17 06:51:13;;;;;;;;;;;;;;;;;;4840262;29;19927;-82
2022/06/17 06:53:42;;;;;;;;;;;;;;;;;;4849744;29;19932;-81
2022/06/17 06:56:10;;;;;;;;;;;;;;;;;;4848267;29;20413;-81
2022/06/17 06:58:36;;;;;;;;;;;;;;;;;;4859154;29;20355;-81
2022/06/17 07:01:02;;;;;;;;;;;;;;;;;;4865875;29;19928;-81
2022/06/17 07:03:29;;;;;;;;;;;;;;;;;;4867565;29;19924;-81
2022/06/17 07:05:58;;;;;;;;;;;;;;;;;;4880903;29;19979;-81
2022/06/17 07:08:24;;;;;;;;;;;;;;;;;;4864940;29;19927;-81
2022/06/17 07:10:52;;;;;;;;;;;;;;;;;;4891044;29;19953;-81
2022/06/17 07:13:21;;;;;;;;;;;;;;;;;;4892958;29;19923;-81
2022/06/17 07:15:56;;;;;;;;;;;;;;;;;;4897684;29;19936;-81
2022/06/17 07:18:23;;;;;;;;;;;;;;;;;;4897127;29;20354;-81
2022/06/17 07:20:49;;;;;;;;;;;;;;;;;;4891411;29;19943;-82
2022/06/17 07:23:16;;;;;;;;;;;;;;;;;;4898111;29;19927;-81
2022/06/17 07:25:43;;;;;;;;;;;;;;;;;;4881482;29;19937;-81
2022/06/17 07:28:11;;;;;;;;;;;;;;;;;;4895901;29;19923;-81
2022/06/17 07:30:38;;;;;;;;;;;;;;;;;;4892271;29;19982;-81
2022/06/17 07:33:05;;;;;;;;;;;;;;;;;;4882497;29;20406;-81
2022/06/17 07:35:31;;;;;;;;;;;;;;;;;;4875617;29;20460;-81
2022/06/17 07:40:49;;;;;;;;;;;;;;;;;;4891354;29;19945;-81
2022/06/17 07:43:16;;;;;;;;;;;;;;;;;;4898811;29;19935;-81
2022/06/17 07:45:43;;;;;;;;;;;;;;;;;;4895514;29;20398;-81
2022/06/17 07:48:10;;;;;;;;;;;;;;;;;;4895426;29;19938;-81
2022/06/17 07:50:38;;;;;;;;;;;;;;;;;;4893656;29;20286;-81
2022/06/17 07:53:05;;;;;;;;;;;;;;;;;;4899255;29;19967;-86
2022/06/17 07:55:32;;;;;;;;;;;;;;;;;;4891998;29;20396;-85
2022/06/17 07:57:59;;;;;;;;;;;;;;;;;;4903526;29;20026;-86
2022/06/17 08:00:26;;;;;;;;;;;;;;;;;;4901770;29;19927;-86
2022/06/17 08:02:53;;;;;;;;;;;;;;;;;;4886659;29;21070;-85
2022/06/17 08:05:21;;;;;;;;;;;;;;;;;;4897230;29;19973;-86
2022/06/17 08:07:49;;;;;;;;;;;;;;;;;;4900421;29;19923;-85
2022/06/17 08:10:16;;;;;;;;;;;;;;;;;;4904337;29;19971;-86
2022/06/17 08:12:43;;;;;;;;;;;;;;;;;;4901991;29;20339;-85
2022/06/17 08:15:12;;;;;;;;;;;;;;;;;;4887685;29;19982;-85
2022/06/17 08:17:39;;;;;;;;;;;;;;;;;;4896509;29;19922;-85
2022/06/17 08:20:09;;;;;;;;;;;;;;;;;;4900915;29;19927;-85
2022/06/17 08:22:46;;;;;;;;;;;;;;;;;;4903663;29;19930;-81
2022/06/17 08:25:13;;;;;;;;;;;;;;;;;;4899210;29;19949;-81
2022/06/17 08:27:40;;;;;;;;;;;;;;;;;;4890755;29;19938;-81
2022/06/17 08:30:07;;;;;;;;;;;;;;;;;;4889221;29;19930;-81
2022/06/17 08:32:45;;;;;;;;;;;;;;;;;;4894281;29;19927;-81
2022/06/17 08:35:12;;;;;;;;;;;;;;;;;;4881824;29;19991;-81
2022/06/17 08:37:40;;;;;;;;;;;;;;;;;;4902580;29;19923;-81
2022/06/17 08:40:07;;;;;;;;;;;;;;;;;;4901402;29;20410;-81
2022/06/17 08:42:34;;;;;;;;;;;;;;;;;;4897900;29;19931;-81
2022/06/17 08:45:01;;;;;;;;;;;;;;;;;;4895687;29;21875;-85
2022/06/17 08:47:30;;;;;;;;;;;;;;;;;;4898896;29;19931;-85
2022/06/17 08:49:56;;;;;;;;;;;;;;;;;;4881608;29;19923;-86
2022/06/17 08:52:23;;;;;;;;;;;;;;;;;;4873234;29;20119;-85
2022/06/17 08:54:56;;;;;;;;;;;;;;;;;;4876125;29;19938;-86
2022/06/17 08:57:23;;;;;;;;;;;;;;;;;;4868278;29;19924;-85
2022/06/17 08:59:50;;;;;;;;;;;;;;;;;;4877703;29;20780;-85
2022/06/17 09:02:20;;;;;;;;;;;;;;;;;;4876211;29;19923;-85
2022/06/17 09:04:48;;;;;;;;;;;;;;;;;;4852543;29;19931;-85
2022/06/17 09:07:15;;;;;;;;;;;;;;;;;;4874367;29;20034;-85
2022/06/17 09:09:42;;;;;;;;;;;;;;;;;;4863292;29;19948;-85
2022/06/17 09:12:23;;;;;;;;;;;;;;;;;;4897748;29;20003;-85
2022/06/17 09:14:49;;;;;;;;;;;;;;;;;;4855924;29;21094;-85
2022/06/17 09:17:16;;;;;;;;;;;;;;;;;;4872019;29;20326;-85
2022/06/17 09:19:43;;;;;;;;;;;;;;;;;;4867367;29;19928;-86
2022/06/17 09:22:10;;;;;;;;;;;;;;;;;;4854393;29;19939;-85
2022/06/17 09:24:37;;;;;;;;;;;;;;;;;;4855399;29;19928;-85
2022/06/17 09:27:04;;;;;;;;;;;;;;;;;;4879228;29;20302;-85
2022/06/17 09:29:32;;;;;;;;;;;;;;;;;;4884567;29;19942;-86
2022/06/17 09:31:59;;;;;;;;;;;;;;;;;;4889151;29;19931;-85
2022/06/17 09:34:26;;;;;;;;;;;;;;;;;;4885304;29;19928;-85
2022/06/17 09:36:54;;;;;;;;;;;;;;;;;;4887113;29;19924;-86
2022/06/17 09:39:23;;;;;;;;;;;;;;;;;;4906383;29;19982;-85
2022/06/17 09:41:49;;;;;;;;;;;;;;;;;;4905223;29;23392;-85
2022/06/17 09:44:15;;;;;;;;;;;;;;;;;;4900288;29;19977;-85
2022/06/17 09:46:41;;;;;;;;;;;;;;;;;;4902946;29;20002;-85
2022/06/17 09:49:07;;;;;;;;;;;;;;;;;;4907747;29;19927;-85
2022/06/17 09:51:33;;;;;;;;;;;;;;;;;;4902121;29;19923;-85
2022/06/17 09:54:01;;;;;;;;;;;;;;;;;;4903235;29;19927;-85
2022/06/17 09:56:28;;;;;;;;;;;;;;;;;;4902481;29;19930;-85
2022/06/17 09:58:55;;;;;;;;;;;;;;;;;;4890970;29;19926;-85
2022/06/17 10:01:22;;;;;;;;;;;;;;;;;;4905687;29;20409;-86
2022/06/17 10:04:03;;;;;;;;;;;;;;;;;;4901466;29;20067;-85
2022/06/17 10:06:29;;;;;;;;;;;;;;;;;;4880357;29;20415;-85
2022/06/17 10:09:12;;;;;;;;;;;;;;;;;;4862421;29;19962;-85
2022/06/17 10:11:39;;;;;;;;;;;;;;;;;;4847302;29;19931;-86
2022/06/17 10:14:06;;;;;;;;;;;;;;;;;;4872696;29;20436;-85
2022/06/17 10:19:18;;;;;;;;;;;;;;;;;;4858050;29;19983;-85
2022/06/17 10:21:45;;;;;;;;;;;;;;;;;;4849657;29;20546;-85
2022/06/17 10:24:12;;;;;;;;;;;;;;;;;;4846018;29;19931;-85
2022/06/17 10:26:40;;;;;;;;;;;;;;;;;;4838039;29;19928;-85
2022/06/17 10:29:07;;;;;;;;;;;;;;;;;;4836676;29;20011;-86
2022/06/17 10:31:34;;;;;;;;;;;;;;;;;;4834074;29;20459;-86
2022/06/17 10:34:01;;;;;;;;;;;;;;;;;;4840228;29;19935;-86
2022/06/17 10:36:30;;;;;;;;;;;;;;;;;;4837609;29;19939;-85
2022/06/17 10:38:57;;;;;;;;;;;;;;;;;;4854455;29;20661;-85
2022/06/17 10:41:25;;;;;;;;;;;;;;;;;;4887484;29;19935;-86
2022/06/17 10:43:51;;;;;;;;;;;;;;;;;;4894346;29;19959;-86
2022/06/17 10:46:17;;;;;;;;;;;;;;;;;;4893146;29;19949;-86
2022/06/17 10:48:44;;;;;;;;;;;;;;;;;;4894203;29;20281;-86
2022/06/17 10:51:10;;;;;;;;;;;;;;;;;;4902406;29;19927;-86
2022/06/17 10:53:37;;;;;;;;;;;;;;;;;;4901004;29;19953;-86
2022/06/17 10:56:05;;;;;;;;;;;;;;;;;;4908848;29;19929;-85
2022/06/17 10:58:33;;;;;;;;;;;;;;;;;;4906122;29;20450;-86
2022/06/17 11:01:01;;;;;;;;;;;;;;;;;;4916159;29;19985;-85
2022/06/17 11:03:28;;;;;;;;;;;;;;;;;;4906832;29;19938;-86
2022/06/17 11:05:58;;;;;;;;;;;;;;;;;;4904994;29;19981;-86
2022/06/17 11:08:26;;;;;;;;;;;;;;;;;;4888059;29;20282;-85
2022/06/17 11:10:53;;;;;;;;;;;;;;;;;;4897350;29;19924;-86
2022/06/17 11:13:19;;;;;;;;;;;;;;;;;;4909871;29;20290;-86
2022/06/17 11:15:45;;;;;;;;;;;;;;;;;;4904674;29;19927;-85
2022/06/17 11:18:12;;;;;;;;;;;;;;;;;;4907892;29;20378;-86
2022/06/17 11:20:39;;;;;;;;;;;;;;;;;;4902756;29;19978;-86
2022/06/17 11:23:09;;;;;;;;;;;;;;;;;;4903937;29;20024;-85
2022/06/17 11:25:37;;;;;;;;;;;;;;;;;;4885891;29;19936;-86
2022/06/17 11:28:04;;;;;;;;;;;;;;;;;;4891137;29;19928;-86
2022/06/17 11:30:31;;;;;;;;;;;;;;;;;;4888195;29;20608;-85
2022/06/17 11:32:59;;;;;;;;;;;;;;;;;;4871749;29;19928;-85
2022/06/17 11:35:26;;;;;;;;;;;;;;;;;;4857755;29;20446;-85
2022/06/17 11:37:54;;;;;;;;;;;;;;;;;;4852893;29;19962;-85
2022/06/17 11:40:21;;;;;;;;;;;;;;;;;;4875984;29;20015;-85
2022/06/17 11:42:48;;;;;;;;;;;;;;;;;;4871437;29;20310;-85
2022/06/17 11:45:16;;;;;;;;;;;;;;;;;;4860307;29;19936;-85
2022/06/17 11:47:42;;;;;;;;;;;;;;;;;;4853741;29;20398;-86
2022/06/17 11:50:09;;;;;;;;;;;;;;;;;;4875282;29;20370;-86
2022/06/17 11:52:37;;;;;;;;;;;;;;;;;;4862138;29;19938;-86
2022/06/17 11:55:05;;;;;;;;;;;;;;;;;;4888378;29;19931;-86
2022/06/17 11:57:31;;;;;;;;;;;;;;;;;;4901396;29;20455;-86
2022/06/17 11:59:57;;;;;;;;;;;;;;;;;;4905661;29;20013;-86
2022/06/17 12:02:25;;;;;;;;;;;;;;;;;;4882157;29;19923;-86
2022/06/17 12:04:51;;;;;;;;;;;;;;;;;;4894847;29;19939;-86
2022/06/17 12:07:18;;;;;;;;;;;;;;;;;;4901522;29;19922;-86
2022/06/17 12:09:45;;;;;;;;;;;;;;;;;;4889160;29;19938;-86
2022/06/17 12:12:15;;;;;;;;;;;;;;;;;;4898693;29;19949;-86
2022/06/17 12:14:41;;;;;;;;;;;;;;;;;;4885029;29;19970;-86
2022/06/17 12:17:07;;;;;;;;;;;;;;;;;;4911747;29;20013;-86
2022/06/17 12:19:34;;;;;;;;;;;;;;;;;;4903277;29;19927;-86
2022/06/17 12:22:02;;;;;;;;;;;;;;;;;;4907846;29;19927;-86
2022/06/17 12:24:28;;;;;;;;;;;;;;;;;;4906536;29;19927;-86
2022/06/17 12:27:01;;;;;;;;;;;;;;;;;;4905934;29;19938;-86
2022/06/17 12:29:29;;;;;;;;;;;;;;;;;;4907534;29;19923;-86
2022/06/17 12:32:05;;;;;;;;;;;;;;;;;;4903236;29;19923;-86
2022/06/17 12:34:31;;;;;;;;;;;;;;;;;;4887397;29;19934;-86
2022/06/17 12:36:58;;;;;;;;;;;;;;;;;;4908875;29;19923;-86
2022/06/17 12:39:25;;;;;;;;;;;;;;;;;;4905151;29;19958;-86
2022/06/17 12:41:52;;;;;;;;;;;;;;;;;;4890973;29;20365;-86
2022/06/17 12:44:18;;;;;;;;;;;;;;;;;;4899326;29;20424;-86
2022/06/17 12:46:45;;;;;;;;;;;;;;;;;;4878490;29;20013;-84
2022/06/17 12:54:48;;;;;;;;;;;;;;;;;;4892048;29;20306;-86
2022/06/17 12:57:16;;;;;;;;;;;;;;;;;;4896295;29;20254;-86
2022/06/17 12:59:44;;;;;;;;;;;;;;;;;;4892960;29;20036;-86
2022/06/17 13:02:12;;;;;;;;;;;;;;;;;;4865262;29;19943;-86
2022/06/17 13:04:41;;;;;;;;;;;;;;;;;;4890617;29;19935;-86
2022/06/17 13:07:09;;;;;;;;;;;;;;;;;;4881926;29;20377;-87
2022/06/17 13:09:36;;;;;;;;;;;;;;;;;;4890171;29;19954;-87
2022/06/17 13:12:15;;;;;;;;;;;;;;;;;;4899887;29;19981;-87
2022/06/17 13:14:42;;;;;;;;;;;;;;;;;;4886287;29;19986;-88
2022/06/17 13:17:08;;;;;;;;;;;;;;;;;;4893161;29;19927;-87
2022/06/17 13:19:36;;;;;;;;;;;;;;;;;;4888075;29;19929;-87
2022/06/17 13:22:01;;;;;;;;;;;;;;;;;;4880694;29;19928;-87
2022/06/17 13:24:28;;;;;;;;;;;;;;;;;;4889575;29;19927;-87
2022/06/17 13:26:54;;;;;;;;;;;;;;;;;;4890970;29;19927;-87
2022/06/17 13:29:23;;;;;;;;;;;;;;;;;;4893875;29;20322;-87
2022/06/17 13:31:49;;;;;;;;;;;;;;;;;;4895906;29;19931;-87
2022/06/17 13:34:16;;;;;;;;;;;;;;;;;;4899270;28;20365;-87
2022/06/17 13:36:42;;;;;;;;;;;;;;;;;;4880804;29;19923;-89
2022/06/17 13:39:09;;;;;;;;;;;;;;;;;;4890279;29;20586;-87
2022/06/17 13:41:38;;;;;;;;;;;;;;;;;;4904173;29;20375;-87
2022/06/17 13:44:06;;;;;;;;;;;;;;;;;;4905625;29;19923;-88
2022/06/17 13:46:32;;;;;;;;;;;;;;;;;;4894325;29;19974;-87
2022/06/17 13:48:59;;;;;;;;;;;;;;;;;;4879931;29;19958;-86
2022/06/17 13:51:27;;;;;;;;;;;;;;;;;;4905338;29;20009;-86
2022/06/17 13:53:54;;;;;;;;;;;;;;;;;;4897395;29;20391;-86
2022/06/17 13:56:21;;;;;;;;;;;;;;;;;;4899834;29;19927;-86
2022/06/17 13:58:48;;;;;;;;;;;;;;;;;;4901953;29;20378;-86
2022/06/17 14:01:29;;;;;;;;;;;;;;;;;;4880027;29;20031;-86
2022/06/17 14:03:57;;;;;;;;;;;;;;;;;;4886813;29;20282;-86
2022/06/17 14:06:24;;;;;;;;;;;;;;;;;;4872429;29;19930;-86
2022/06/17 14:08:53;;;;;;;;;;;;;;;;;;4872141;29;19935;-86
2022/06/17 14:11:39;;;;;;;;;;;;;;;;;;4886504;29;19931;-86
2022/06/17 14:14:06;;;;;;;;;;;;;;;;;;4867180;29;20015;-86
2022/06/17 14:16:32;;;;;;;;;;;;;;;;;;4859978;29;19964;-87
2022/06/17 14:18:58;;;;;;;;;;;;;;;;;;4884130;29;19931;-86
2022/06/17 14:21:25;;;;;;;;;;;;;;;;;;4878086;29;19974;-87
2022/06/17 14:24:07;;;;;;;;;;;;;;;;;;4826398;29;19928;-88
2022/06/17 14:26:33;;;;;;;;;;;;;;;;;;4820404;29;19973;-87
2022/06/17 14:29:01;;;;;;;;;;;;;;;;;;4804445;29;19928;-87
2022/06/17 14:31:26;;;;;;;;;;;;;;;;;;4806971;29;19943;-87
2022/06/17 14:33:52;;;;;;;;;;;;;;;;;;4814956;29;19928;-87
2022/06/17 14:36:18;;;;;;;;;;;;;;;;;;4829824;29;19981;-87
2022/06/17 14:38:46;;;;;;;;;;;;;;;;;;4796308;29;21586;-87
2022/06/17 14:43:59;;;;;;;;;;;;;;;;;;4814899;29;19935;-87
2022/06/17 14:46:40;;;;;;;;;;;;;;;;;;4831181;29;20456;-87
2022/06/17 14:49:10;;;;;;;;;;;;;;;;;;4836572;29;20015;-87
2022/06/17 14:51:37;;;;;;;;;;;;;;;;;;4811857;29;19932;-87
2022/06/17 14:54:19;;;;;;;;;;;;;;;;;;4834771;29;19939;-87
2022/06/17 14:56:46;;;;;;;;;;;;;;;;;;4839603;29;19975;-87
2022/06/17 14:59:12;;;;;;;;;;;;;;;;;;4842539;29;19932;-87
2022/06/17 15:01:39;;;;;;;;;;;;;;;;;;4860705;29;19950;-87
2022/06/17 15:04:06;;;;;;;;;;;;;;;;;;4895226;29;19990;-87
2022/06/17 15:06:32;;;;;;;;;;;;;;;;;;4893314;29;19931;-87
2022/06/17 15:08:58;;;;;;;;;;;;;;;;;;4882400;29;19930;-87
2022/06/17 15:11:29;;;;;;;;;;;;;;;;;;4902689;29;19963;-87
2022/06/17 15:14:08;;;;;;;;;;;;;;;;;;4886051;29;19927;-87
2022/06/17 15:16:37;;;;;;;;;;;;;;;;;;4878377;29;19962;-87
2022/06/17 15:19:03;;;;;;;;;;;;;;;;;;4898767;29;20299;-87
2022/06/17 15:21:36;;;;;;;;;;;;;;;;;;4896909;29;19934;-87
2022/06/17 15:24:02;;;;;;;;;;;;;;;;;;4899116;29;20371;-87
2022/06/17 15:26:28;;;;;;;;;;;;;;;;;;4892249;29;19930;-86
2022/06/17 15:28:56;;;;;;;;;;;;;;;;;;4878066;29;19923;-86
2022/06/17 15:31:27;;;;;;;;;;;;;;;;;;4897940;29;19923;-87
2022/06/17 15:33:58;;;;;;;;;;;;;;;;;;4892663;29;19942;-87
2022/06/17 15:36:24;;;;;;;;;;;;;;;;;;4886322;29;19927;-86
2022/06/17 15:38:50;;;;;;;;;;;;;;;;;;4873734;29;21685;-87
2022/06/17 15:41:19;;;;;;;;;;;;;;;;;;4895291;29;19927;-86
2022/06/17 15:43:46;;;;;;;;;;;;;;;;;;4888846;29;19986;-87
2022/06/17 15:46:12;;;;;;;;;;;;;;;;;;4895296;29;20421;-87
2022/06/17 15:48:41;;;;;;;;;;;;;;;;;;4886875;29;19938;-87
2022/06/17 15:51:08;;;;;;;;;;;;;;;;;;4897861;29;19923;-87
2022/06/17 15:53:43;;;;;;;;;;;;;;;;;;4889559;29;19949;-86
2022/06/17 15:56:09;;;;;;;;;;;;;;;;;;4894892;29;20400;-86
2022/06/17 15:58:38;;;;;;;;;;;;;;;;;;4885278;29;19931;-86
2022/06/17 16:01:15;;;;;;;;;;;;;;;;;;4891221;29;19990;-86
2022/06/17 16:03:41;;;;;;;;;;;;;;;;;;4879572;29;20093;-86
2022/06/17 16:06:08;;;;;;;;;;;;;;;;;;4897929;29;20131;-86
2022/06/17 16:08:34;;;;;;;;;;;;;;;;;;4886069;29;19931;-87
2022/06/17 16:11:00;;;;;;;;;;;;;;;;;;4887960;29;19934;-86
2022/06/17 16:13:34;;;;;;;;;;;;;;;;;;4890716;29;19991;-86
2022/06/17 16:16:20;;;;;;;;;;;;;;;;;;4903860;29;19930;-87
2022/06/17 16:18:50;;;;;;;;;;;;;;;;;;4893748;29;19973;-86
2022/06/17 16:21:17;;;;;;;;;;;;;;;;;;4879381;29;19919;-86
2022/06/17 16:23:44;;;;;;;;;;;;;;;;;;4888753;29;19931;-87
2022/06/17 16:26:10;;;;;;;;;;;;;;;;;;4889244;29;19923;-87
2022/06/17 16:28:36;;;;;;;;;;;;;;;;;;4884888;29;19930;-86
2022/06/17 16:31:03;;;;;;;;;;;;;;;;;;4896348;29;19933;-87
2022/06/17 16:33:29;;;;;;;;;;;;;;;;;;4893584;29;19962;-86
2022/06/17 16:35:57;;;;;;;;;;;;;;;;;;4906726;28;19970;-87
2022/06/17 16:38:23;;;;;;;;;;;;;;;;;;4888672;29;20126;-87
2022/06/17 16:46:22;;;;;;;;;;;;;;;;;;4903008;29;20366;-86
2022/06/17 16:48:48;;;;;;;;;;;;;;;;;;4896138;29;21132;-86
2022/06/17 16:51:16;;;;;;;;;;;;;;;;;;4897001;29;19930;-87
2022/06/17 16:53:43;;;;;;;;;;;;;;;;;;4870357;29;20392;-86
2022/06/17 16:56:22;;;;;;;;;;;;;;;;;;4896897;29;20076;-87
2022/06/17 16:58:49;;;;;;;;;;;;;;;;;;4899093;28;19980;-87
2022/06/17 17:01:16;;;;;;;;;;;;;;;;;;4904198;29;19922;-87
2022/06/17 17:03:43;;;;;;;;;;;;;;;;;;4880825;29;20073;-87
2022/06/17 17:06:11;;;;;;;;;;;;;;;;;;4895421;29;20417;-87
2022/06/17 17:08:38;;;;;;;;;;;;;;;;;;4879595;29;19931;-86
2022/06/17 17:11:08;;;;;;;;;;;;;;;;;;4886781;29;19938;-87
2022/06/17 17:13:34;;;;;;;;;;;;;;;;;;4883655;29;19927;-87